sensor_id;sensor_type;location;lat;lon;timestamp;P1;durP1;ratioP1;P2;durP2;ratioP2
38117;SDS011;23928;47.562;7.508;2023-09-30T00:00:56;8.30;;;2.80;;
38117;SDS011;23928;47.562;7.508;2023-09-30T00:03:21;5.13;;;2.60;;
38117;SDS011;23928;47.562;7.508;2023-09-30T00:05:47;4.73;;;2.63;;
38117;SDS011;23928;47.562;7.508;2023-09-30T00:08:13;8.30;;;2.97;;
38117;SDS011;23928;47.562;7.508;2023-09-30T00:10:38;5.47;;;2.43;;
38117;SDS011;23928;47.562;7.508;2023-09-30T00:13:04;10.10;;;3.50;;
38117;SDS011;23928;47.562;7.508;2023-09-30T00:15:32;6.27;;;2.77;;
38117;SDS011;23928;47.562;7.508;2023-09-30T00:18:00;6.40;;;2.80;;
38117;SDS011;23928;47.562;7.508;2023-09-30T00:20:27;9.23;;;3.23;;
38117;SDS011;23928;47.562;7.508;2023-09-30T00:22:53;7.90;;;3.07;;
38117;SDS011;23928;47.562;7.508;2023-09-30T00:25:18;6.30;;;2.60;;
38117;SDS011;23928;47.562;7.508;2023-09-30T00:27:45;7.47;;;3.03;;
38117;SDS011;23928;47.562;7.508;2023-09-30T00:30:14;6.33;;;2.70;;
38117;SDS011;23928;47.562;7.508;2023-09-30T00:32:40;5.87;;;2.90;;
38117;SDS011;23928;47.562;7.508;2023-09-30T00:35:06;6.70;;;2.77;;
38117;SDS011;23928;47.562;7.508;2023-09-30T00:37:39;5.47;;;2.60;;
38117;SDS011;23928;47.562;7.508;2023-09-30T00:40:05;6.53;;;2.80;;
38117;SDS011;23928;47.562;7.508;2023-09-30T00:42:32;4.97;;;2.87;;
38117;SDS011;23928;47.562;7.508;2023-09-30T00:44:57;8.67;;;3.00;;
38117;SDS011;23928;47.562;7.508;2023-09-30T00:47:23;7.67;;;3.20;;
38117;SDS011;23928;47.562;7.508;2023-09-30T00:49:51;9.13;;;3.00;;
38117;SDS011;23928;47.562;7.508;2023-09-30T00:52:18;7.30;;;3.37;;
38117;SDS011;23928;47.562;7.508;2023-09-30T00:54:44;6.37;;;2.80;;
38117;SDS011;23928;47.562;7.508;2023-09-30T00:57:12;9.30;;;3.37;;
38117;SDS011;23928;47.562;7.508;2023-09-30T00:59:39;5.87;;;2.77;;
38117;SDS011;23928;47.562;7.508;2023-09-30T01:02:05;7.20;;;2.90;;
38117;SDS011;23928;47.562;7.508;2023-09-30T01:04:31;7.03;;;3.03;;
38117;SDS011;23928;47.562;7.508;2023-09-30T01:06:57;5.63;;;2.73;;
38117;SDS011;23928;47.562;7.508;2023-09-30T01:09:23;7.73;;;2.87;;
38117;SDS011;23928;47.562;7.508;2023-09-30T01:11:49;6.23;;;3.33;;
38117;SDS011;23928;47.562;7.508;2023-09-30T01:14:27;5.43;;;2.60;;
38117;SDS011;23928;47.562;7.508;2023-09-30T01:16:54;7.67;;;3.33;;
38117;SDS011;23928;47.562;7.508;2023-09-30T01:19:20;7.50;;;2.70;;
38117;SDS011;23928;47.562;7.508;2023-09-30T01:21:49;6.00;;;2.50;;
38117;SDS011;23928;47.562;7.508;2023-09-30T01:24:29;7.03;;;2.90;;
38117;SDS011;23928;47.562;7.508;2023-09-30T01:26:55;7.60;;;3.00;;
38117;SDS011;23928;47.562;7.508;2023-09-30T01:29:21;9.20;;;3.40;;
38117;SDS011;23928;47.562;7.508;2023-09-30T01:31:47;5.93;;;2.90;;
38117;SDS011;23928;47.562;7.508;2023-09-30T01:34:14;7.47;;;2.90;;
38117;SDS011;23928;47.562;7.508;2023-09-30T01:36:41;6.30;;;2.77;;
38117;SDS011;23928;47.562;7.508;2023-09-30T01:39:08;6.63;;;2.80;;
38117;SDS011;23928;47.562;7.508;2023-09-30T01:41:35;7.27;;;3.50;;
38117;SDS011;23928;47.562;7.508;2023-09-30T01:44:07;6.47;;;2.77;;
38117;SDS011;23928;47.562;7.508;2023-09-30T01:46:34;5.73;;;2.70;;
38117;SDS011;23928;47.562;7.508;2023-09-30T01:49:01;7.90;;;3.20;;
38117;SDS011;23928;47.562;7.508;2023-09-30T01:51:27;7.80;;;2.83;;
38117;SDS011;23928;47.562;7.508;2023-09-30T01:53:54;8.37;;;3.30;;
38117;SDS011;23928;47.562;7.508;2023-09-30T01:56:20;6.80;;;2.57;;
38117;SDS011;23928;47.562;7.508;2023-09-30T01:58:45;7.33;;;2.63;;
38117;SDS011;23928;47.562;7.508;2023-09-30T02:01:11;5.97;;;2.50;;
38117;SDS011;23928;47.562;7.508;2023-09-30T02:03:36;9.33;;;2.93;;
38117;SDS011;23928;47.562;7.508;2023-09-30T02:06:02;7.33;;;2.53;;
38117;SDS011;23928;47.562;7.508;2023-09-30T02:08:28;7.03;;;2.80;;
38117;SDS011;23928;47.562;7.508;2023-09-30T02:10:54;5.00;;;2.50;;
38117;SDS011;23928;47.562;7.508;2023-09-30T02:13:20;5.27;;;2.70;;
38117;SDS011;23928;47.562;7.508;2023-09-30T02:15:45;7.20;;;2.80;;
38117;SDS011;23928;47.562;7.508;2023-09-30T02:18:11;5.73;;;2.83;;
38117;SDS011;23928;47.562;7.508;2023-09-30T02:20:37;5.87;;;2.77;;
38117;SDS011;23928;47.562;7.508;2023-09-30T02:23:09;6.13;;;2.90;;
38117;SDS011;23928;47.562;7.508;2023-09-30T02:25:40;7.67;;;3.20;;
38117;SDS011;23928;47.562;7.508;2023-09-30T02:28:07;5.13;;;2.33;;
38117;SDS011;23928;47.562;7.508;2023-09-30T02:30:33;6.07;;;3.10;;
38117;SDS011;23928;47.562;7.508;2023-09-30T02:32:58;5.50;;;2.87;;
38117;SDS011;23928;47.562;7.508;2023-09-30T02:35:24;5.67;;;2.67;;
38117;SDS011;23928;47.562;7.508;2023-09-30T02:37:51;4.43;;;2.40;;
38117;SDS011;23928;47.562;7.508;2023-09-30T02:40:16;4.97;;;2.50;;
38117;SDS011;23928;47.562;7.508;2023-09-30T02:42:43;6.90;;;2.80;;
38117;SDS011;23928;47.562;7.508;2023-09-30T02:45:09;6.37;;;2.47;;
38117;SDS011;23928;47.562;7.508;2023-09-30T02:47:36;6.63;;;2.70;;
38117;SDS011;23928;47.562;7.508;2023-09-30T02:50:04;7.50;;;3.17;;
38117;SDS011;23928;47.562;7.508;2023-09-30T02:52:30;6.63;;;2.83;;
38117;SDS011;23928;47.562;7.508;2023-09-30T02:54:56;7.90;;;2.70;;
38117;SDS011;23928;47.562;7.508;2023-09-30T02:57:23;7.27;;;3.20;;
38117;SDS011;23928;47.562;7.508;2023-09-30T02:59:49;6.77;;;2.60;;
38117;SDS011;23928;47.562;7.508;2023-09-30T03:02:17;8.13;;;3.10;;
38117;SDS011;23928;47.562;7.508;2023-09-30T03:04:43;5.37;;;2.40;;
38117;SDS011;23928;47.562;7.508;2023-09-30T03:07:09;6.83;;;2.87;;
38117;SDS011;23928;47.562;7.508;2023-09-30T03:09:35;8.47;;;2.47;;
38117;SDS011;23928;47.562;7.508;2023-09-30T03:12:01;6.40;;;2.77;;
38117;SDS011;23928;47.562;7.508;2023-09-30T03:14:29;4.93;;;2.87;;
38117;SDS011;23928;47.562;7.508;2023-09-30T03:16:56;4.97;;;2.70;;
38117;SDS011;23928;47.562;7.508;2023-09-30T03:19:22;4.43;;;2.60;;
38117;SDS011;23928;47.562;7.508;2023-09-30T03:21:48;6.47;;;3.00;;
38117;SDS011;23928;47.562;7.508;2023-09-30T03:24:15;5.00;;;2.80;;
38117;SDS011;23928;47.562;7.508;2023-09-30T03:26:40;6.63;;;2.80;;
38117;SDS011;23928;47.562;7.508;2023-09-30T03:29:06;6.57;;;2.90;;
38117;SDS011;23928;47.562;7.508;2023-09-30T03:31:34;8.63;;;3.30;;
38117;SDS011;23928;47.562;7.508;2023-09-30T03:34:00;8.97;;;3.10;;
38117;SDS011;23928;47.562;7.508;2023-09-30T03:36:25;5.50;;;2.87;;
38117;SDS011;23928;47.562;7.508;2023-09-30T03:38:54;4.60;;;2.30;;
38117;SDS011;23928;47.562;7.508;2023-09-30T03:41:24;6.00;;;2.77;;
38117;SDS011;23928;47.562;7.508;2023-09-30T03:43:49;7.27;;;2.73;;
38117;SDS011;23928;47.562;7.508;2023-09-30T03:46:15;7.57;;;3.07;;
38117;SDS011;23928;47.562;7.508;2023-09-30T03:48:41;6.73;;;2.50;;
38117;SDS011;23928;47.562;7.508;2023-09-30T03:53:42;5.00;;;2.80;;
38117;SDS011;23928;47.562;7.508;2023-09-30T03:56:09;5.80;;;2.53;;
38117;SDS011;23928;47.562;7.508;2023-09-30T03:58:41;7.53;;;2.70;;
38117;SDS011;23928;47.562;7.508;2023-09-30T04:01:08;6.37;;;2.70;;
38117;SDS011;23928;47.562;7.508;2023-09-30T04:03:36;5.63;;;2.60;;
38117;SDS011;23928;47.562;7.508;2023-09-30T04:06:05;5.00;;;2.80;;
38117;SDS011;23928;47.562;7.508;2023-09-30T04:08:32;7.43;;;2.97;;
38117;SDS011;23928;47.562;7.508;2023-09-30T04:11:07;5.67;;;2.90;;
38117;SDS011;23928;47.562;7.508;2023-09-30T04:13:33;5.83;;;2.50;;
38117;SDS011;23928;47.562;7.508;2023-09-30T04:15:58;4.77;;;2.23;;
38117;SDS011;23928;47.562;7.508;2023-09-30T04:18:24;5.93;;;2.40;;
38117;SDS011;23928;47.562;7.508;2023-09-30T04:20:51;5.80;;;2.77;;
38117;SDS011;23928;47.562;7.508;2023-09-30T04:23:17;6.13;;;2.90;;
38117;SDS011;23928;47.562;7.508;2023-09-30T04:25:45;8.07;;;2.40;;
38117;SDS011;23928;47.562;7.508;2023-09-30T04:28:11;6.63;;;3.00;;
38117;SDS011;23928;47.562;7.508;2023-09-30T04:30:38;5.30;;;2.47;;
38117;SDS011;23928;47.562;7.508;2023-09-30T04:33:04;7.27;;;2.93;;
38117;SDS011;23928;47.562;7.508;2023-09-30T04:35:32;6.70;;;2.50;;
38117;SDS011;23928;47.562;7.508;2023-09-30T04:37:57;7.23;;;2.90;;
38117;SDS011;23928;47.562;7.508;2023-09-30T04:40:26;6.80;;;2.80;;
38117;SDS011;23928;47.562;7.508;2023-09-30T04:42:52;7.40;;;3.30;;
38117;SDS011;23928;47.562;7.508;2023-09-30T04:45:20;5.53;;;2.80;;
38117;SDS011;23928;47.562;7.508;2023-09-30T04:47:46;7.70;;;3.33;;
38117;SDS011;23928;47.562;7.508;2023-09-30T04:50:14;5.83;;;2.87;;
38117;SDS011;23928;47.562;7.508;2023-09-30T04:52:40;6.17;;;3.10;;
38117;SDS011;23928;47.562;7.508;2023-09-30T04:55:06;8.80;;;3.07;;
38117;SDS011;23928;47.562;7.508;2023-09-30T04:57:33;6.13;;;3.13;;
38117;SDS011;23928;47.562;7.508;2023-09-30T04:59:58;6.17;;;2.93;;
38117;SDS011;23928;47.562;7.508;2023-09-30T05:02:24;5.63;;;2.87;;
38117;SDS011;23928;47.562;7.508;2023-09-30T05:04:50;6.60;;;2.90;;
38117;SDS011;23928;47.562;7.508;2023-09-30T05:07:17;8.97;;;3.50;;
38117;SDS011;23928;47.562;7.508;2023-09-30T05:09:42;9.33;;;3.90;;
38117;SDS011;23928;47.562;7.508;2023-09-30T05:12:08;8.80;;;3.47;;
38117;SDS011;23928;47.562;7.508;2023-09-30T05:14:35;5.97;;;2.87;;
38117;SDS011;23928;47.562;7.508;2023-09-30T05:17:01;9.27;;;3.53;;
38117;SDS011;23928;47.562;7.508;2023-09-30T05:19:29;7.43;;;3.37;;
38117;SDS011;23928;47.562;7.508;2023-09-30T05:21:56;7.47;;;3.37;;
38117;SDS011;23928;47.562;7.508;2023-09-30T05:24:22;5.70;;;3.23;;
38117;SDS011;23928;47.562;7.508;2023-09-30T05:26:48;7.27;;;4.13;;
38117;SDS011;23928;47.562;7.508;2023-09-30T05:29:13;6.20;;;3.30;;
38117;SDS011;23928;47.562;7.508;2023-09-30T05:31:39;6.37;;;3.23;;
38117;SDS011;23928;47.562;7.508;2023-09-30T05:34:04;6.70;;;3.47;;
38117;SDS011;23928;47.562;7.508;2023-09-30T05:36:30;9.73;;;4.00;;
38117;SDS011;23928;47.562;7.508;2023-09-30T05:38:55;8.23;;;4.57;;
38117;SDS011;23928;47.562;7.508;2023-09-30T05:41:22;10.57;;;4.40;;
38117;SDS011;23928;47.562;7.508;2023-09-30T05:43:48;8.07;;;4.00;;
38117;SDS011;23928;47.562;7.508;2023-09-30T05:46:14;9.07;;;4.10;;
38117;SDS011;23928;47.562;7.508;2023-09-30T05:48:40;9.60;;;4.27;;
38117;SDS011;23928;47.562;7.508;2023-09-30T05:51:06;8.73;;;3.73;;
38117;SDS011;23928;47.562;7.508;2023-09-30T05:53:32;6.90;;;3.73;;
38117;SDS011;23928;47.562;7.508;2023-09-30T05:55:58;7.73;;;3.40;;
38117;SDS011;23928;47.562;7.508;2023-09-30T05:58:24;8.83;;;4.27;;
38117;SDS011;23928;47.562;7.508;2023-09-30T06:00:51;8.43;;;4.03;;
38117;SDS011;23928;47.562;7.508;2023-09-30T06:03:18;7.43;;;4.03;;
38117;SDS011;23928;47.562;7.508;2023-09-30T06:05:44;6.53;;;3.57;;
38117;SDS011;23928;47.562;7.508;2023-09-30T06:08:09;9.67;;;4.10;;
38117;SDS011;23928;47.562;7.508;2023-09-30T06:10:39;7.93;;;3.90;;
38117;SDS011;23928;47.562;7.508;2023-09-30T06:13:08;7.73;;;4.23;;
38117;SDS011;23928;47.562;7.508;2023-09-30T06:15:36;10.07;;;4.43;;
38117;SDS011;23928;47.562;7.508;2023-09-30T06:18:06;8.40;;;4.50;;
38117;SDS011;23928;47.562;7.508;2023-09-30T06:20:33;9.27;;;4.33;;
38117;SDS011;23928;47.562;7.508;2023-09-30T06:22:59;9.30;;;4.73;;
38117;SDS011;23928;47.562;7.508;2023-09-30T06:25:28;7.57;;;4.57;;
38117;SDS011;23928;47.562;7.508;2023-09-30T06:27:55;10.73;;;5.23;;
38117;SDS011;23928;47.562;7.508;2023-09-30T06:30:21;9.97;;;4.43;;
38117;SDS011;23928;47.562;7.508;2023-09-30T06:32:54;9.60;;;4.93;;
38117;SDS011;23928;47.562;7.508;2023-09-30T06:35:19;12.10;;;5.00;;
38117;SDS011;23928;47.562;7.508;2023-09-30T06:37:45;9.07;;;4.77;;
38117;SDS011;23928;47.562;7.508;2023-09-30T06:40:11;8.83;;;5.17;;
38117;SDS011;23928;47.562;7.508;2023-09-30T06:42:37;7.80;;;4.30;;
38117;SDS011;23928;47.562;7.508;2023-09-30T06:45:05;10.30;;;4.50;;
38117;SDS011;23928;47.562;7.508;2023-09-30T06:47:31;6.37;;;3.73;;
38117;SDS011;23928;47.562;7.508;2023-09-30T06:49:59;9.17;;;4.33;;
38117;SDS011;23928;47.562;7.508;2023-09-30T06:52:32;7.80;;;3.90;;
38117;SDS011;23928;47.562;7.508;2023-09-30T06:55:02;8.83;;;4.10;;
38117;SDS011;23928;47.562;7.508;2023-09-30T06:57:29;7.43;;;4.00;;
38117;SDS011;23928;47.562;7.508;2023-09-30T06:59:57;7.97;;;3.80;;
38117;SDS011;23928;47.562;7.508;2023-09-30T07:02:22;7.93;;;3.60;;
38117;SDS011;23928;47.562;7.508;2023-09-30T07:04:49;7.40;;;3.60;;
38117;SDS011;23928;47.562;7.508;2023-09-30T07:07:14;7.17;;;3.53;;
38117;SDS011;23928;47.562;7.508;2023-09-30T07:09:40;7.73;;;3.53;;
38117;SDS011;23928;47.562;7.508;2023-09-30T07:12:07;7.17;;;2.97;;
38117;SDS011;23928;47.562;7.508;2023-09-30T07:14:33;7.33;;;3.07;;
38117;SDS011;23928;47.562;7.508;2023-09-30T07:16:58;7.40;;;3.37;;
38117;SDS011;23928;47.562;7.508;2023-09-30T07:19:24;7.90;;;2.77;;
38117;SDS011;23928;47.562;7.508;2023-09-30T07:21:49;7.90;;;2.80;;
38117;SDS011;23928;47.562;7.508;2023-09-30T07:24:16;6.73;;;3.17;;
38117;SDS011;23928;47.562;7.508;2023-09-30T07:26:41;6.93;;;3.40;;
38117;SDS011;23928;47.562;7.508;2023-09-30T07:29:08;6.43;;;2.60;;
38117;SDS011;23928;47.562;7.508;2023-09-30T07:31:37;6.60;;;2.90;;
38117;SDS011;23928;47.562;7.508;2023-09-30T07:34:03;6.87;;;3.17;;
38117;SDS011;23928;47.562;7.508;2023-09-30T07:36:28;6.97;;;2.47;;
38117;SDS011;23928;47.562;7.508;2023-09-30T07:38:54;7.73;;;3.23;;
38117;SDS011;23928;47.562;7.508;2023-09-30T07:41:20;6.73;;;3.13;;
38117;SDS011;23928;47.562;7.508;2023-09-30T07:43:46;6.23;;;3.20;;
38117;SDS011;23928;47.562;7.508;2023-09-30T07:46:11;7.50;;;3.00;;
38117;SDS011;23928;47.562;7.508;2023-09-30T07:48:37;5.20;;;2.67;;
38117;SDS011;23928;47.562;7.508;2023-09-30T07:51:04;7.20;;;3.20;;
38117;SDS011;23928;47.562;7.508;2023-09-30T07:53:34;5.40;;;3.20;;
38117;SDS011;23928;47.562;7.508;2023-09-30T07:56:00;5.43;;;2.70;;
38117;SDS011;23928;47.562;7.508;2023-09-30T07:58:25;9.60;;;3.83;;
38117;SDS011;23928;47.562;7.508;2023-09-30T08:00:51;5.10;;;2.90;;
38117;SDS011;23928;47.562;7.508;2023-09-30T08:03:17;7.13;;;3.03;;
38117;SDS011;23928;47.562;7.508;2023-09-30T08:05:42;9.13;;;2.93;;
38117;SDS011;23928;47.562;7.508;2023-09-30T08:08:09;6.00;;;3.00;;
38117;SDS011;23928;47.562;7.508;2023-09-30T08:10:34;6.63;;;3.07;;
38117;SDS011;23928;47.562;7.508;2023-09-30T08:13:01;6.43;;;3.00;;
38117;SDS011;23928;47.562;7.508;2023-09-30T08:15:27;5.77;;;2.70;;
38117;SDS011;23928;47.562;7.508;2023-09-30T08:17:53;6.70;;;3.27;;
38117;SDS011;23928;47.562;7.508;2023-09-30T08:20:19;7.77;;;3.27;;
38117;SDS011;23928;47.562;7.508;2023-09-30T08:22:44;5.80;;;2.73;;
38117;SDS011;23928;47.562;7.508;2023-09-30T08:25:10;7.20;;;2.80;;
38117;SDS011;23928;47.562;7.508;2023-09-30T08:27:36;6.57;;;3.00;;
38117;SDS011;23928;47.562;7.508;2023-09-30T08:30:03;7.30;;;2.70;;
38117;SDS011;23928;47.562;7.508;2023-09-30T08:32:32;8.30;;;3.20;;
38117;SDS011;23928;47.562;7.508;2023-09-30T08:34:58;5.83;;;3.10;;
38117;SDS011;23928;47.562;7.508;2023-09-30T08:37:24;8.27;;;3.47;;
38117;SDS011;23928;47.562;7.508;2023-09-30T08:39:49;7.60;;;2.70;;
38117;SDS011;23928;47.562;7.508;2023-09-30T08:42:15;7.17;;;3.10;;
38117;SDS011;23928;47.562;7.508;2023-09-30T08:44:43;7.03;;;3.10;;
38117;SDS011;23928;47.562;7.508;2023-09-30T08:47:09;6.93;;;3.20;;
38117;SDS011;23928;47.562;7.508;2023-09-30T08:49:37;6.90;;;3.27;;
38117;SDS011;23928;47.562;7.508;2023-09-30T08:52:06;7.00;;;3.47;;
38117;SDS011;23928;47.562;7.508;2023-09-30T08:54:34;6.50;;;3.37;;
38117;SDS011;23928;47.562;7.508;2023-09-30T08:57:00;6.17;;;2.80;;
38117;SDS011;23928;47.562;7.508;2023-09-30T08:59:26;8.57;;;3.20;;
38117;SDS011;23928;47.562;7.508;2023-09-30T09:01:52;6.43;;;2.90;;
38117;SDS011;23928;47.562;7.508;2023-09-30T09:04:18;8.20;;;3.57;;
38117;SDS011;23928;47.562;7.508;2023-09-30T09:06:44;6.83;;;3.00;;
38117;SDS011;23928;47.562;7.508;2023-09-30T09:09:14;10.37;;;3.30;;
38117;SDS011;23928;47.562;7.508;2023-09-30T09:11:44;7.87;;;3.83;;
38117;SDS011;23928;47.562;7.508;2023-09-30T09:14:11;7.00;;;3.10;;
38117;SDS011;23928;47.562;7.508;2023-09-30T09:16:37;6.83;;;3.10;;
38117;SDS011;23928;47.562;7.508;2023-09-30T09:19:15;6.83;;;3.30;;
38117;SDS011;23928;47.562;7.508;2023-09-30T09:21:53;7.70;;;3.23;;
38117;SDS011;23928;47.562;7.508;2023-09-30T09:24:41;7.23;;;3.17;;
38117;SDS011;23928;47.562;7.508;2023-09-30T09:27:12;6.80;;;3.57;;
38117;SDS011;23928;47.562;7.508;2023-09-30T09:29:41;9.37;;;3.27;;
38117;SDS011;23928;47.562;7.508;2023-09-30T09:32:13;5.90;;;3.07;;
38117;SDS011;23928;47.562;7.508;2023-09-30T09:34:41;7.57;;;3.80;;
38117;SDS011;23928;47.562;7.508;2023-09-30T09:39:42;5.93;;;2.87;;
38117;SDS011;23928;47.562;7.508;2023-09-30T09:42:39;6.87;;;3.33;;
38117;SDS011;23928;47.562;7.508;2023-09-30T09:45:05;8.73;;;3.70;;
38117;SDS011;23928;47.562;7.508;2023-09-30T09:47:32;6.97;;;3.60;;
38117;SDS011;23928;47.562;7.508;2023-09-30T09:49:58;6.93;;;3.10;;
38117;SDS011;23928;47.562;7.508;2023-09-30T09:52:24;7.37;;;3.40;;
38117;SDS011;23928;47.562;7.508;2023-09-30T09:54:51;7.53;;;3.50;;
38117;SDS011;23928;47.562;7.508;2023-09-30T09:57:17;8.67;;;3.33;;
38117;SDS011;23928;47.562;7.508;2023-09-30T09:59:46;6.27;;;3.30;;
38117;SDS011;23928;47.562;7.508;2023-09-30T10:02:13;7.60;;;3.00;;
38117;SDS011;23928;47.562;7.508;2023-09-30T10:04:40;8.27;;;3.37;;
38117;SDS011;23928;47.562;7.508;2023-09-30T10:07:08;8.40;;;3.20;;
38117;SDS011;23928;47.562;7.508;2023-09-30T10:09:41;8.70;;;3.20;;
38117;SDS011;23928;47.562;7.508;2023-09-30T10:12:10;10.13;;;3.60;;
38117;SDS011;23928;47.562;7.508;2023-09-30T10:14:37;8.27;;;3.77;;
38117;SDS011;23928;47.562;7.508;2023-09-30T10:17:03;9.30;;;3.60;;
38117;SDS011;23928;47.562;7.508;2023-09-30T10:19:29;7.40;;;3.40;;
38117;SDS011;23928;47.562;7.508;2023-09-30T10:24:47;9.53;;;3.77;;
38117;SDS011;23928;47.562;7.508;2023-09-30T10:33:10;5.77;;;3.20;;
38117;SDS011;23928;47.562;7.508;2023-09-30T10:35:18;6.17;;;3.23;;
38117;SDS011;23928;47.562;7.508;2023-09-30T10:37:44;8.43;;;3.47;;
38117;SDS011;23928;47.562;7.508;2023-09-30T10:40:25;6.00;;;3.10;;
38117;SDS011;23928;47.562;7.508;2023-09-30T10:42:52;6.50;;;3.00;;
38117;SDS011;23928;47.562;7.508;2023-09-30T10:51:01;7.33;;;3.37;;
38117;SDS011;23928;47.562;7.508;2023-09-30T10:53:46;7.20;;;3.20;;
38117;SDS011;23928;47.562;7.508;2023-09-30T10:56:12;7.03;;;3.13;;
38117;SDS011;23928;47.562;7.508;2023-09-30T10:58:45;7.77;;;3.27;;
38117;SDS011;23928;47.562;7.508;2023-09-30T11:01:15;6.63;;;4.00;;
38117;SDS011;23928;47.562;7.508;2023-09-30T11:03:44;7.10;;;3.33;;
38117;SDS011;23928;47.562;7.508;2023-09-30T11:06:11;7.10;;;3.30;;
38117;SDS011;23928;47.562;7.508;2023-09-30T11:09:03;6.07;;;3.53;;
38117;SDS011;23928;47.562;7.508;2023-09-30T11:11:37;7.87;;;3.47;;
38117;SDS011;23928;47.562;7.508;2023-09-30T11:16:54;5.83;;;3.00;;
38117;SDS011;23928;47.562;7.508;2023-09-30T11:19:20;6.67;;;3.40;;
38117;SDS011;23928;47.562;7.508;2023-09-30T11:21:50;8.17;;;3.70;;
38117;SDS011;23928;47.562;7.508;2023-09-30T11:24:17;8.03;;;3.60;;
38117;SDS011;23928;47.562;7.508;2023-09-30T11:26:46;7.63;;;3.57;;
38117;SDS011;23928;47.562;7.508;2023-09-30T11:29:16;7.20;;;3.87;;
38117;SDS011;23928;47.562;7.508;2023-09-30T11:31:43;7.17;;;3.23;;
38117;SDS011;23928;47.562;7.508;2023-09-30T11:34:10;7.60;;;3.87;;
38117;SDS011;23928;47.562;7.508;2023-09-30T11:36:40;7.33;;;3.97;;
38117;SDS011;23928;47.562;7.508;2023-09-30T11:39:26;8.03;;;3.63;;
38117;SDS011;23928;47.562;7.508;2023-09-30T11:41:52;7.73;;;3.97;;
38117;SDS011;23928;47.562;7.508;2023-09-30T11:44:20;8.93;;;4.00;;
38117;SDS011;23928;47.562;7.508;2023-09-30T11:47:07;7.57;;;4.07;;
38117;SDS011;23928;47.562;7.508;2023-09-30T11:49:37;7.90;;;4.03;;
38117;SDS011;23928;47.562;7.508;2023-09-30T11:52:05;7.00;;;3.40;;
38117;SDS011;23928;47.562;7.508;2023-09-30T11:54:36;7.77;;;3.90;;
38117;SDS011;23928;47.562;7.508;2023-09-30T11:57:06;8.47;;;3.50;;
38117;SDS011;23928;47.562;7.508;2023-09-30T11:59:36;6.63;;;3.57;;
38117;SDS011;23928;47.562;7.508;2023-09-30T12:02:02;8.20;;;3.83;;
38117;SDS011;23928;47.562;7.508;2023-09-30T12:04:30;7.70;;;3.70;;
38117;SDS011;23928;47.562;7.508;2023-09-30T12:06:56;7.80;;;3.80;;
38117;SDS011;23928;47.562;7.508;2023-09-30T12:09:22;7.57;;;3.60;;
38117;SDS011;23928;47.562;7.508;2023-09-30T12:11:51;8.43;;;4.20;;
38117;SDS011;23928;47.562;7.508;2023-09-30T12:14:19;9.67;;;4.17;;
38117;SDS011;23928;47.562;7.508;2023-09-30T12:16:45;9.53;;;4.50;;
38117;SDS011;23928;47.562;7.508;2023-09-30T12:19:12;7.83;;;3.90;;
38117;SDS011;23928;47.562;7.508;2023-09-30T12:21:42;10.27;;;4.47;;
38117;SDS011;23928;47.562;7.508;2023-09-30T12:24:11;8.33;;;4.43;;
38117;SDS011;23928;47.562;7.508;2023-09-30T12:26:41;7.27;;;4.00;;
38117;SDS011;23928;47.562;7.508;2023-09-30T12:29:07;9.00;;;3.70;;
38117;SDS011;23928;47.562;7.508;2023-09-30T12:31:34;8.57;;;4.27;;
38117;SDS011;23928;47.562;7.508;2023-09-30T12:34:00;10.23;;;4.63;;
38117;SDS011;23928;47.562;7.508;2023-09-30T12:36:25;7.47;;;3.93;;
38117;SDS011;23928;47.562;7.508;2023-09-30T12:38:51;8.40;;;4.37;;
38117;SDS011;23928;47.562;7.508;2023-09-30T12:41:17;8.13;;;4.23;;
38117;SDS011;23928;47.562;7.508;2023-09-30T12:43:44;8.67;;;4.20;;
38117;SDS011;23928;47.562;7.508;2023-09-30T12:46:10;9.40;;;4.83;;
38117;SDS011;23928;47.562;7.508;2023-09-30T12:48:38;8.67;;;3.83;;
38117;SDS011;23928;47.562;7.508;2023-09-30T12:51:04;9.77;;;4.50;;
38117;SDS011;23928;47.562;7.508;2023-09-30T12:53:31;6.67;;;3.60;;
38117;SDS011;23928;47.562;7.508;2023-09-30T12:56:00;7.97;;;4.00;;
38117;SDS011;23928;47.562;7.508;2023-09-30T12:58:26;9.47;;;4.57;;
38117;SDS011;23928;47.562;7.508;2023-09-30T13:00:53;10.30;;;4.50;;
38117;SDS011;23928;47.562;7.508;2023-09-30T13:03:20;8.63;;;4.40;;
38117;SDS011;23928;47.562;7.508;2023-09-30T13:05:45;8.73;;;3.97;;
38117;SDS011;23928;47.562;7.508;2023-09-30T13:08:11;8.67;;;4.43;;
38117;SDS011;23928;47.562;7.508;2023-09-30T13:10:37;8.17;;;3.93;;
38117;SDS011;23928;47.562;7.508;2023-09-30T13:13:03;8.43;;;4.20;;
38117;SDS011;23928;47.562;7.508;2023-09-30T13:15:29;8.47;;;4.77;;
38117;SDS011;23928;47.562;7.508;2023-09-30T13:17:54;8.93;;;4.47;;
38117;SDS011;23928;47.562;7.508;2023-09-30T13:20:20;7.93;;;3.97;;
38117;SDS011;23928;47.562;7.508;2023-09-30T13:22:45;8.13;;;4.53;;
38117;SDS011;23928;47.562;7.508;2023-09-30T13:25:11;8.73;;;4.27;;
38117;SDS011;23928;47.562;7.508;2023-09-30T13:27:37;7.07;;;4.07;;
38117;SDS011;23928;47.562;7.508;2023-09-30T13:30:05;9.03;;;4.63;;
38117;SDS011;23928;47.562;7.508;2023-09-30T13:32:32;9.07;;;4.17;;
38117;SDS011;23928;47.562;7.508;2023-09-30T13:35:01;6.67;;;3.90;;
38117;SDS011;23928;47.562;7.508;2023-09-30T13:37:30;10.03;;;5.30;;
38117;SDS011;23928;47.562;7.508;2023-09-30T13:39:58;9.07;;;4.57;;
38117;SDS011;23928;47.562;7.508;2023-09-30T13:42:29;7.40;;;4.03;;
38117;SDS011;23928;47.562;7.508;2023-09-30T13:44:57;8.73;;;3.93;;
38117;SDS011;23928;47.562;7.508;2023-09-30T13:47:24;9.10;;;4.47;;
38117;SDS011;23928;47.562;7.508;2023-09-30T13:49:50;7.17;;;4.13;;
38117;SDS011;23928;47.562;7.508;2023-09-30T13:52:15;9.20;;;4.73;;
38117;SDS011;23928;47.562;7.508;2023-09-30T13:54:41;9.13;;;4.43;;
38117;SDS011;23928;47.562;7.508;2023-09-30T13:57:07;8.63;;;4.20;;
38117;SDS011;23928;47.562;7.508;2023-09-30T13:59:35;9.80;;;4.77;;
38117;SDS011;23928;47.562;7.508;2023-09-30T14:02:04;10.07;;;4.60;;
38117;SDS011;23928;47.562;7.508;2023-09-30T14:04:30;11.03;;;4.77;;
38117;SDS011;23928;47.562;7.508;2023-09-30T14:07:00;9.90;;;4.50;;
38117;SDS011;23928;47.562;7.508;2023-09-30T14:09:27;8.67;;;4.57;;
38117;SDS011;23928;47.562;7.508;2023-09-30T14:11:53;7.97;;;4.63;;
38117;SDS011;23928;47.562;7.508;2023-09-30T14:14:18;10.00;;;4.50;;
38117;SDS011;23928;47.562;7.508;2023-09-30T14:16:44;8.73;;;4.33;;
38117;SDS011;23928;47.562;7.508;2023-09-30T14:19:10;10.97;;;4.07;;
38117;SDS011;23928;47.562;7.508;2023-09-30T14:21:35;7.70;;;4.13;;
38117;SDS011;23928;47.562;7.508;2023-09-30T14:24:01;8.57;;;4.77;;
38117;SDS011;23928;47.562;7.508;2023-09-30T14:26:27;11.60;;;4.83;;
38117;SDS011;23928;47.562;7.508;2023-09-30T14:28:53;10.37;;;5.17;;
38117;SDS011;23928;47.562;7.508;2023-09-30T14:31:19;9.20;;;4.70;;
38117;SDS011;23928;47.562;7.508;2023-09-30T14:33:44;11.07;;;5.30;;
38117;SDS011;23928;47.562;7.508;2023-09-30T14:36:10;9.47;;;4.57;;
38117;SDS011;23928;47.562;7.508;2023-09-30T14:38:36;11.30;;;5.33;;
38117;SDS011;23928;47.562;7.508;2023-09-30T14:41:05;8.10;;;4.23;;
38117;SDS011;23928;47.562;7.508;2023-09-30T14:43:32;9.03;;;4.20;;
38117;SDS011;23928;47.562;7.508;2023-09-30T14:46:00;11.67;;;5.20;;
38117;SDS011;23928;47.562;7.508;2023-09-30T14:48:27;11.00;;;4.63;;
38117;SDS011;23928;47.562;7.508;2023-09-30T14:50:53;11.80;;;5.07;;
38117;SDS011;23928;47.562;7.508;2023-09-30T14:53:18;10.17;;;4.73;;
38117;SDS011;23928;47.562;7.508;2023-09-30T14:55:44;10.23;;;4.67;;
38117;SDS011;23928;47.562;7.508;2023-09-30T14:58:10;8.17;;;4.40;;
38117;SDS011;23928;47.562;7.508;2023-09-30T15:00:36;10.43;;;5.43;;
38117;SDS011;23928;47.562;7.508;2023-09-30T15:03:02;11.87;;;5.80;;
38117;SDS011;23928;47.562;7.508;2023-09-30T15:05:28;10.03;;;5.30;;
38117;SDS011;23928;47.562;7.508;2023-09-30T15:07:54;9.40;;;5.17;;